This is the latest recevied weather packets stored in our database for station/object WE8M. If no packets are shown the sender has not sent any weather packets the latest 10 day(s).
| Time | Temp. | Humidity | Pressure | Rain* | Wind** | Luminosity | Snow |
|---|---|---|---|---|---|---|---|
| 1778084149 | 12.22° C | 70% | 1013.2 hPa | 0 mm | - | - | - |
| 1778083845 | 12.78° C | 70% | 1013.1 hPa | 0 mm | - | - | - |
| 1778083543 | 12.22° C | 68% | 1013.3 hPa | 0 mm | - | - | - |
| 1778079710 | 11.67° C | 73% | 1012.5 hPa | 0 mm | - | - | - |
| 1778077289 | 10.56° C | 78% | 1011.8 hPa | 0 mm | - | - | - |
| 1778076986 | 10.56° C | 79% | 1011.8 hPa | 0 mm | - | - | - |
| 1778076382 | 10.56° C | 80% | 1011.7 hPa | 0 mm | - | - | - |
| 1778074562 | 10° C | 84% | 1011.6 hPa | 0 mm | - | - | - |
| 1778074259 | 9.44° C | 87% | 1011.3 hPa | 0 mm | - | - | - |
| 1778073956 | 8.89° C | 87% | 1011.2 hPa | 0 mm | - | - | - |
| 1778073653 | 8.89° C | 87% | 1011.2 hPa | 0 mm | - | - | - |
| 1778073350 | 8.89° C | 87% | 1011.2 hPa | 0 mm | - | - | - |
| 1778072441 | 8.33° C | 89% | 1011 hPa | 0 mm | - | - | - |
| 1778070929 | 8.33° C | 90% | 1011.2 hPa | 0 mm | - | - | - |
| 1778070627 | 8.33° C | 91% | 1010.8 hPa | 0 mm | - | - | - |
| 1778070323 | 8.33° C | 92% | 1010.6 hPa | 0 mm | - | - | - |
| 1778070022 | 7.78° C | 93% | 1010.6 hPa | 0 mm | - | - | - |
| 1778069719 | 8.33° C | 94% | 1010.6 hPa | 0 mm | - | - | - |
| 1778069415 | 7.78° C | 94% | 1010.3 hPa | 0 mm | - | - | - |
| 1778069113 | 7.78° C | 94% | 1010.4 hPa | 0 mm | - | - | - |
| 1778066996 | 7.78° C | 93% | 1009.7 hPa | 0 mm | - | - | - |
| 1778065179 | 7.78° C | 93% | 1009 hPa | 0 mm | - | - | - |
| 1778064876 | 7.78° C | 93% | 1008.9 hPa | 0 mm | - | - | - |
| 1778063363 | 7.78° C | 94% | 1008.1 hPa | 0 mm | - | - | - |
| 1778063062 | 7.78° C | 94% | 1008.1 hPa | 1.78 mm | - | - | - |
* Rain latest hour (hover to see other rain measurements)
** Current wind speed in m/s (hover to see current wind gust speed)